sensor_id;sensor_type;location;lat;lon;timestamp;P1;durP1;ratioP1;P2;durP2;ratioP2
19877;SDS011;10101;52.204;9.910;2023-01-19T00:00:14;5.37;;;3.47;;
19877;SDS011;10101;52.204;9.910;2023-01-19T00:02:42;8.27;;;3.60;;
19877;SDS011;10101;52.204;9.910;2023-01-19T00:05:11;7.70;;;3.80;;
19877;SDS011;10101;52.204;9.910;2023-01-19T00:07:38;5.83;;;3.50;;
19877;SDS011;10101;52.204;9.910;2023-01-19T00:10:06;7.67;;;3.57;;
19877;SDS011;10101;52.204;9.910;2023-01-19T00:12:34;5.47;;;3.30;;
19877;SDS011;10101;52.204;9.910;2023-01-19T00:15:01;6.30;;;3.10;;
19877;SDS011;10101;52.204;9.910;2023-01-19T00:17:28;6.57;;;3.13;;
19877;SDS011;10101;52.204;9.910;2023-01-19T00:19:55;6.97;;;3.53;;
19877;SDS011;10101;52.204;9.910;2023-01-19T00:22:22;7.40;;;3.17;;
19877;SDS011;10101;52.204;9.910;2023-01-19T00:24:48;6.43;;;3.30;;
19877;SDS011;10101;52.204;9.910;2023-01-19T00:27:15;5.50;;;3.43;;
19877;SDS011;10101;52.204;9.910;2023-01-19T00:29:43;9.90;;;3.57;;
19877;SDS011;10101;52.204;9.910;2023-01-19T00:32:10;7.63;;;3.77;;
19877;SDS011;10101;52.204;9.910;2023-01-19T00:34:36;7.03;;;3.60;;
19877;SDS011;10101;52.204;9.910;2023-01-19T00:37:06;7.93;;;3.80;;
19877;SDS011;10101;52.204;9.910;2023-01-19T00:39:33;5.80;;;3.53;;
19877;SDS011;10101;52.204;9.910;2023-01-19T00:42:00;6.67;;;3.33;;
19877;SDS011;10101;52.204;9.910;2023-01-19T00:44:46;5.30;;;3.07;;
19877;SDS011;10101;52.204;9.910;2023-01-19T00:47:12;6.97;;;3.17;;
19877;SDS011;10101;52.204;9.910;2023-01-19T00:49:39;6.50;;;3.47;;
19877;SDS011;10101;52.204;9.910;2023-01-19T00:52:06;7.23;;;3.27;;
19877;SDS011;10101;52.204;9.910;2023-01-19T00:54:32;5.83;;;3.27;;
19877;SDS011;10101;52.204;9.910;2023-01-19T00:56:59;6.47;;;3.07;;
19877;SDS011;10101;52.204;9.910;2023-01-19T00:59:26;5.00;;;3.00;;
19877;SDS011;10101;52.204;9.910;2023-01-19T01:01:55;5.20;;;3.47;;
19877;SDS011;10101;52.204;9.910;2023-01-19T01:04:21;5.47;;;3.20;;
19877;SDS011;10101;52.204;9.910;2023-01-19T01:06:48;4.83;;;2.97;;
19877;SDS011;10101;52.204;9.910;2023-01-19T01:09:15;4.63;;;3.23;;
19877;SDS011;10101;52.204;9.910;2023-01-19T01:11:42;4.90;;;3.30;;
19877;SDS011;10101;52.204;9.910;2023-01-19T01:14:10;8.37;;;3.50;;
19877;SDS011;10101;52.204;9.910;2023-01-19T01:16:37;5.10;;;3.20;;
19877;SDS011;10101;52.204;9.910;2023-01-19T01:19:06;5.83;;;3.30;;
19877;SDS011;10101;52.204;9.910;2023-01-19T01:21:32;9.57;;;3.70;;
19877;SDS011;10101;52.204;9.910;2023-01-19T01:23:59;5.63;;;3.03;;
19877;SDS011;10101;52.204;9.910;2023-01-19T01:26:26;6.27;;;3.13;;
19877;SDS011;10101;52.204;9.910;2023-01-19T01:28:53;6.03;;;2.90;;
19877;SDS011;10101;52.204;9.910;2023-01-19T01:31:20;8.83;;;3.40;;
19877;SDS011;10101;52.204;9.910;2023-01-19T01:33:47;7.73;;;2.97;;
19877;SDS011;10101;52.204;9.910;2023-01-19T01:36:15;5.23;;;3.27;;
19877;SDS011;10101;52.204;9.910;2023-01-19T01:38:43;4.30;;;3.00;;
19877;SDS011;10101;52.204;9.910;2023-01-19T01:41:10;5.70;;;3.63;;
19877;SDS011;10101;52.204;9.910;2023-01-19T01:43:41;6.30;;;3.10;;
19877;SDS011;10101;52.204;9.910;2023-01-19T01:46:10;4.60;;;2.70;;
19877;SDS011;10101;52.204;9.910;2023-01-19T01:48:39;6.07;;;3.50;;
19877;SDS011;10101;52.204;9.910;2023-01-19T01:51:09;5.03;;;2.73;;
19877;SDS011;10101;52.204;9.910;2023-01-19T01:53:51;5.23;;;3.10;;
19877;SDS011;10101;52.204;9.910;2023-01-19T01:56:31;4.87;;;3.37;;
19877;SDS011;10101;52.204;9.910;2023-01-19T01:59:02;4.70;;;2.93;;
19877;SDS011;10101;52.204;9.910;2023-01-19T02:01:31;4.73;;;3.00;;
19877;SDS011;10101;52.204;9.910;2023-01-19T02:04:17;5.57;;;3.37;;
19877;SDS011;10101;52.204;9.910;2023-01-19T02:06:44;5.70;;;3.17;;
19877;SDS011;10101;52.204;9.910;2023-01-19T02:09:32;5.70;;;3.03;;
19877;SDS011;10101;52.204;9.910;2023-01-19T02:12:19;5.57;;;3.30;;
19877;SDS011;10101;52.204;9.910;2023-01-19T02:15:04;4.03;;;2.70;;
19877;SDS011;10101;52.204;9.910;2023-01-19T02:17:32;6.97;;;3.20;;
19877;SDS011;10101;52.204;9.910;2023-01-19T02:19:58;6.13;;;3.17;;
19877;SDS011;10101;52.204;9.910;2023-01-19T02:22:25;5.87;;;3.10;;
19877;SDS011;10101;52.204;9.910;2023-01-19T02:25:01;5.73;;;3.10;;
19877;SDS011;10101;52.204;9.910;2023-01-19T02:27:29;6.27;;;2.87;;
19877;SDS011;10101;52.204;9.910;2023-01-19T02:29:56;5.87;;;2.97;;
19877;SDS011;10101;52.204;9.910;2023-01-19T02:32:24;6.00;;;3.10;;
19877;SDS011;10101;52.204;9.910;2023-01-19T02:34:51;4.33;;;2.80;;
19877;SDS011;10101;52.204;9.910;2023-01-19T02:37:17;5.83;;;3.03;;
19877;SDS011;10101;52.204;9.910;2023-01-19T02:39:46;6.93;;;3.20;;
19877;SDS011;10101;52.204;9.910;2023-01-19T02:42:17;5.27;;;3.43;;
19877;SDS011;10101;52.204;9.910;2023-01-19T02:44:49;3.93;;;2.83;;
19877;SDS011;10101;52.204;9.910;2023-01-19T02:47:18;5.10;;;3.27;;
19877;SDS011;10101;52.204;9.910;2023-01-19T02:49:52;6.43;;;3.30;;
19877;SDS011;10101;52.204;9.910;2023-01-19T02:52:20;5.10;;;3.13;;
19877;SDS011;10101;52.204;9.910;2023-01-19T02:54:50;6.93;;;3.20;;
19877;SDS011;10101;52.204;9.910;2023-01-19T02:57:32;4.40;;;2.83;;
19877;SDS011;10101;52.204;9.910;2023-01-19T03:00:12;5.87;;;2.93;;
19877;SDS011;10101;52.204;9.910;2023-01-19T03:02:47;4.60;;;3.50;;
19877;SDS011;10101;52.204;9.910;2023-01-19T03:05:28;7.03;;;3.43;;
19877;SDS011;10101;52.204;9.910;2023-01-19T03:08:05;8.10;;;3.90;;
19877;SDS011;10101;52.204;9.910;2023-01-19T03:10:41;5.30;;;3.10;;
19877;SDS011;10101;52.204;9.910;2023-01-19T03:13:17;4.33;;;2.90;;
19877;SDS011;10101;52.204;9.910;2023-01-19T03:15:53;4.67;;;3.30;;
19877;SDS011;10101;52.204;9.910;2023-01-19T03:18:23;7.13;;;3.27;;
19877;SDS011;10101;52.204;9.910;2023-01-19T03:20:52;4.80;;;3.20;;
19877;SDS011;10101;52.204;9.910;2023-01-19T03:23:24;6.37;;;3.17;;
19877;SDS011;10101;52.204;9.910;2023-01-19T03:25:55;4.57;;;3.50;;
19877;SDS011;10101;52.204;9.910;2023-01-19T03:28:25;6.83;;;3.80;;
19877;SDS011;10101;52.204;9.910;2023-01-19T03:30:56;6.73;;;3.47;;
19877;SDS011;10101;52.204;9.910;2023-01-19T03:33:27;4.90;;;3.03;;
19877;SDS011;10101;52.204;9.910;2023-01-19T03:35:57;5.33;;;2.90;;
19877;SDS011;10101;52.204;9.910;2023-01-19T03:38:30;5.57;;;3.20;;
19877;SDS011;10101;52.204;9.910;2023-01-19T03:41:04;4.60;;;2.90;;
19877;SDS011;10101;52.204;9.910;2023-01-19T03:43:35;6.83;;;3.00;;
19877;SDS011;10101;52.204;9.910;2023-01-19T03:46:03;4.73;;;2.93;;
19877;SDS011;10101;52.204;9.910;2023-01-19T03:48:31;5.20;;;2.80;;
19877;SDS011;10101;52.204;9.910;2023-01-19T03:51:01;5.17;;;3.27;;
19877;SDS011;10101;52.204;9.910;2023-01-19T03:53:28;4.53;;;2.83;;
19877;SDS011;10101;52.204;9.910;2023-01-19T03:55:55;6.20;;;3.40;;
19877;SDS011;10101;52.204;9.910;2023-01-19T03:58:22;4.80;;;3.10;;
19877;SDS011;10101;52.204;9.910;2023-01-19T04:00:50;4.03;;;2.83;;
19877;SDS011;10101;52.204;9.910;2023-01-19T04:03:17;5.80;;;3.00;;
19877;SDS011;10101;52.204;9.910;2023-01-19T04:05:44;6.33;;;3.40;;
19877;SDS011;10101;52.204;9.910;2023-01-19T04:08:11;5.57;;;3.00;;
19877;SDS011;10101;52.204;9.910;2023-01-19T04:10:38;6.03;;;3.03;;
19877;SDS011;10101;52.204;9.910;2023-01-19T04:13:04;6.53;;;3.40;;
19877;SDS011;10101;52.204;9.910;2023-01-19T04:15:31;5.60;;;3.37;;
19877;SDS011;10101;52.204;9.910;2023-01-19T04:17:59;5.87;;;2.83;;
19877;SDS011;10101;52.204;9.910;2023-01-19T04:20:26;5.77;;;3.27;;
19877;SDS011;10101;52.204;9.910;2023-01-19T04:22:54;4.37;;;3.17;;
19877;SDS011;10101;52.204;9.910;2023-01-19T04:25:24;5.37;;;3.00;;
19877;SDS011;10101;52.204;9.910;2023-01-19T04:27:51;5.70;;;3.27;;
19877;SDS011;10101;52.204;9.910;2023-01-19T04:30:19;3.80;;;2.80;;
19877;SDS011;10101;52.204;9.910;2023-01-19T04:32:46;5.17;;;3.10;;
19877;SDS011;10101;52.204;9.910;2023-01-19T04:35:15;4.97;;;2.90;;
19877;SDS011;10101;52.204;9.910;2023-01-19T04:37:42;4.30;;;2.97;;
19877;SDS011;10101;52.204;9.910;2023-01-19T04:40:10;8.40;;;3.30;;
19877;SDS011;10101;52.204;9.910;2023-01-19T04:42:37;4.20;;;2.90;;
19877;SDS011;10101;52.204;9.910;2023-01-19T04:45:04;8.90;;;3.30;;
19877;SDS011;10101;52.204;9.910;2023-01-19T04:47:31;4.73;;;3.13;;
19877;SDS011;10101;52.204;9.910;2023-01-19T04:49:58;6.07;;;3.40;;
19877;SDS011;10101;52.204;9.910;2023-01-19T04:52:27;4.03;;;3.07;;
19877;SDS011;10101;52.204;9.910;2023-01-19T04:54:58;6.37;;;3.23;;
19877;SDS011;10101;52.204;9.910;2023-01-19T04:57:25;4.77;;;3.17;;
19877;SDS011;10101;52.204;9.910;2023-01-19T04:59:52;9.17;;;2.90;;
19877;SDS011;10101;52.204;9.910;2023-01-19T05:02:18;3.83;;;2.80;;
19877;SDS011;10101;52.204;9.910;2023-01-19T05:04:46;6.00;;;2.80;;
19877;SDS011;10101;52.204;9.910;2023-01-19T05:07:13;5.73;;;2.90;;
19877;SDS011;10101;52.204;9.910;2023-01-19T05:09:41;4.90;;;2.90;;
19877;SDS011;10101;52.204;9.910;2023-01-19T05:12:08;4.53;;;2.80;;
19877;SDS011;10101;52.204;9.910;2023-01-19T05:14:35;5.10;;;2.73;;
19877;SDS011;10101;52.204;9.910;2023-01-19T05:17:02;4.57;;;2.97;;
19877;SDS011;10101;52.204;9.910;2023-01-19T05:19:29;4.30;;;2.87;;
19877;SDS011;10101;52.204;9.910;2023-01-19T05:21:56;4.80;;;2.70;;
19877;SDS011;10101;52.204;9.910;2023-01-19T05:24:23;3.97;;;2.50;;
19877;SDS011;10101;52.204;9.910;2023-01-19T05:26:51;5.87;;;2.77;;
19877;SDS011;10101;52.204;9.910;2023-01-19T05:29:17;4.03;;;2.90;;
19877;SDS011;10101;52.204;9.910;2023-01-19T05:31:44;5.90;;;3.10;;
19877;SDS011;10101;52.204;9.910;2023-01-19T05:34:11;6.33;;;2.77;;
19877;SDS011;10101;52.204;9.910;2023-01-19T05:36:39;4.27;;;3.00;;
19877;SDS011;10101;52.204;9.910;2023-01-19T05:39:06;4.00;;;2.70;;
19877;SDS011;10101;52.204;9.910;2023-01-19T05:41:33;4.30;;;3.37;;
19877;SDS011;10101;52.204;9.910;2023-01-19T05:44:01;5.03;;;2.80;;
19877;SDS011;10101;52.204;9.910;2023-01-19T05:46:28;6.70;;;3.13;;
19877;SDS011;10101;52.204;9.910;2023-01-19T05:48:55;4.77;;;3.20;;
19877;SDS011;10101;52.204;9.910;2023-01-19T05:51:22;6.57;;;2.93;;
19877;SDS011;10101;52.204;9.910;2023-01-19T05:53:49;4.87;;;2.80;;
19877;SDS011;10101;52.204;9.910;2023-01-19T05:56:16;6.27;;;2.60;;
19877;SDS011;10101;52.204;9.910;2023-01-19T05:58:42;3.43;;;2.80;;
19877;SDS011;10101;52.204;9.910;2023-01-19T06:01:11;4.97;;;2.97;;
19877;SDS011;10101;52.204;9.910;2023-01-19T06:03:37;4.87;;;2.73;;
19877;SDS011;10101;52.204;9.910;2023-01-19T06:06:05;4.23;;;2.83;;
19877;SDS011;10101;52.204;9.910;2023-01-19T06:08:32;5.00;;;2.57;;
19877;SDS011;10101;52.204;9.910;2023-01-19T06:10:59;4.43;;;2.97;;
19877;SDS011;10101;52.204;9.910;2023-01-19T06:13:26;2.83;;;2.43;;
19877;SDS011;10101;52.204;9.910;2023-01-19T06:15:56;4.80;;;2.80;;
19877;SDS011;10101;52.204;9.910;2023-01-19T06:18:24;7.60;;;3.23;;
19877;SDS011;10101;52.204;9.910;2023-01-19T06:20:51;4.27;;;2.80;;
19877;SDS011;10101;52.204;9.910;2023-01-19T06:23:22;5.00;;;2.97;;
19877;SDS011;10101;52.204;9.910;2023-01-19T06:25:49;5.07;;;3.10;;
19877;SDS011;10101;52.204;9.910;2023-01-19T06:28:16;4.97;;;3.20;;
19877;SDS011;10101;52.204;9.910;2023-01-19T06:30:44;5.17;;;3.13;;
19877;SDS011;10101;52.204;9.910;2023-01-19T06:33:13;3.87;;;2.83;;
19877;SDS011;10101;52.204;9.910;2023-01-19T06:35:42;4.40;;;2.83;;
19877;SDS011;10101;52.204;9.910;2023-01-19T06:38:09;5.47;;;3.20;;
19877;SDS011;10101;52.204;9.910;2023-01-19T06:40:39;6.53;;;2.90;;
19877;SDS011;10101;52.204;9.910;2023-01-19T06:43:06;4.33;;;3.10;;
19877;SDS011;10101;52.204;9.910;2023-01-19T06:45:33;5.10;;;3.00;;
19877;SDS011;10101;52.204;9.910;2023-01-19T06:48:01;5.10;;;2.63;;
19877;SDS011;10101;52.204;9.910;2023-01-19T06:50:28;5.57;;;2.53;;
19877;SDS011;10101;52.204;9.910;2023-01-19T06:52:56;6.43;;;3.50;;
19877;SDS011;10101;52.204;9.910;2023-01-19T06:55:23;7.57;;;3.30;;
19877;SDS011;10101;52.204;9.910;2023-01-19T06:57:54;4.63;;;3.10;;
19877;SDS011;10101;52.204;9.910;2023-01-19T07:00:22;4.20;;;2.90;;
19877;SDS011;10101;52.204;9.910;2023-01-19T07:02:49;5.37;;;3.40;;
19877;SDS011;10101;52.204;9.910;2023-01-19T07:05:16;4.80;;;3.10;;
19877;SDS011;10101;52.204;9.910;2023-01-19T07:07:43;4.67;;;3.30;;
19877;SDS011;10101;52.204;9.910;2023-01-19T07:10:11;5.67;;;3.03;;
19877;SDS011;10101;52.204;9.910;2023-01-19T07:12:39;4.80;;;3.17;;
19877;SDS011;10101;52.204;9.910;2023-01-19T07:15:06;4.93;;;3.07;;
19877;SDS011;10101;52.204;9.910;2023-01-19T07:17:35;6.07;;;3.20;;
19877;SDS011;10101;52.204;9.910;2023-01-19T07:20:02;4.93;;;3.20;;
19877;SDS011;10101;52.204;9.910;2023-01-19T07:22:29;4.40;;;3.00;;
19877;SDS011;10101;52.204;9.910;2023-01-19T07:24:56;4.17;;;2.93;;
19877;SDS011;10101;52.204;9.910;2023-01-19T07:27:25;6.07;;;2.80;;
19877;SDS011;10101;52.204;9.910;2023-01-19T07:29:52;5.20;;;3.27;;
19877;SDS011;10101;52.204;9.910;2023-01-19T07:32:19;4.87;;;3.10;;
19877;SDS011;10101;52.204;9.910;2023-01-19T07:34:46;7.40;;;3.37;;
19877;SDS011;10101;52.204;9.910;2023-01-19T07:37:12;6.07;;;3.30;;
19877;SDS011;10101;52.204;9.910;2023-01-19T07:39:39;6.00;;;3.23;;
19877;SDS011;10101;52.204;9.910;2023-01-19T07:42:06;5.10;;;3.10;;
19877;SDS011;10101;52.204;9.910;2023-01-19T07:44:34;5.63;;;3.40;;
19877;SDS011;10101;52.204;9.910;2023-01-19T07:47:01;4.83;;;3.37;;
19877;SDS011;10101;52.204;9.910;2023-01-19T07:49:30;6.67;;;3.20;;
19877;SDS011;10101;52.204;9.910;2023-01-19T07:51:57;8.80;;;3.20;;
19877;SDS011;10101;52.204;9.910;2023-01-19T07:54:23;4.57;;;3.20;;
19877;SDS011;10101;52.204;9.910;2023-01-19T07:56:52;6.07;;;3.33;;
19877;SDS011;10101;52.204;9.910;2023-01-19T07:59:18;7.03;;;3.40;;
19877;SDS011;10101;52.204;9.910;2023-01-19T08:01:47;6.27;;;3.23;;
19877;SDS011;10101;52.204;9.910;2023-01-19T08:04:13;8.17;;;3.47;;
19877;SDS011;10101;52.204;9.910;2023-01-19T08:06:42;5.50;;;3.53;;
19877;SDS011;10101;52.204;9.910;2023-01-19T08:09:10;5.93;;;3.30;;
19877;SDS011;10101;52.204;9.910;2023-01-19T08:11:37;4.93;;;3.50;;
19877;SDS011;10101;52.204;9.910;2023-01-19T08:14:04;5.00;;;3.07;;
19877;SDS011;10101;52.204;9.910;2023-01-19T08:16:31;4.90;;;3.57;;
19877;SDS011;10101;52.204;9.910;2023-01-19T08:18:59;5.77;;;3.20;;
19877;SDS011;10101;52.204;9.910;2023-01-19T08:21:26;8.10;;;3.43;;
19877;SDS011;10101;52.204;9.910;2023-01-19T08:23:53;5.57;;;3.70;;
19877;SDS011;10101;52.204;9.910;2023-01-19T08:26:21;4.77;;;3.10;;
19877;SDS011;10101;52.204;9.910;2023-01-19T08:28:54;5.73;;;3.90;;
19877;SDS011;10101;52.204;9.910;2023-01-19T08:31:21;6.27;;;3.50;;
19877;SDS011;10101;52.204;9.910;2023-01-19T08:33:48;6.07;;;3.23;;
19877;SDS011;10101;52.204;9.910;2023-01-19T08:36:17;5.37;;;3.13;;
19877;SDS011;10101;52.204;9.910;2023-01-19T08:38:43;5.70;;;3.33;;
19877;SDS011;10101;52.204;9.910;2023-01-19T08:41:10;5.33;;;3.30;;
19877;SDS011;10101;52.204;9.910;2023-01-19T08:43:38;7.10;;;3.90;;
19877;SDS011;10101;52.204;9.910;2023-01-19T08:46:05;8.07;;;3.63;;
19877;SDS011;10101;52.204;9.910;2023-01-19T08:48:31;6.20;;;3.70;;
19877;SDS011;10101;52.204;9.910;2023-01-19T08:50:58;5.97;;;3.30;;
19877;SDS011;10101;52.204;9.910;2023-01-19T08:53:26;7.90;;;3.20;;
19877;SDS011;10101;52.204;9.910;2023-01-19T08:55:53;6.27;;;3.53;;
19877;SDS011;10101;52.204;9.910;2023-01-19T08:58:23;6.47;;;4.13;;
19877;SDS011;10101;52.204;9.910;2023-01-19T09:00:50;5.17;;;3.27;;
19877;SDS011;10101;52.204;9.910;2023-01-19T09:03:18;6.40;;;3.43;;
19877;SDS011;10101;52.204;9.910;2023-01-19T09:05:46;4.23;;;3.40;;
19877;SDS011;10101;52.204;9.910;2023-01-19T09:08:13;5.70;;;3.47;;
19877;SDS011;10101;52.204;9.910;2023-01-19T09:10:44;5.57;;;3.40;;
19877;SDS011;10101;52.204;9.910;2023-01-19T09:13:12;5.63;;;3.07;;
19877;SDS011;10101;52.204;9.910;2023-01-19T09:15:39;6.20;;;3.23;;
19877;SDS011;10101;52.204;9.910;2023-01-19T09:18:08;5.60;;;3.60;;
19877;SDS011;10101;52.204;9.910;2023-01-19T09:20:38;6.87;;;3.83;;
19877;SDS011;10101;52.204;9.910;2023-01-19T09:23:06;6.40;;;3.60;;
19877;SDS011;10101;52.204;9.910;2023-01-19T09:25:35;5.23;;;3.20;;
19877;SDS011;10101;52.204;9.910;2023-01-19T09:28:03;5.73;;;3.50;;
19877;SDS011;10101;52.204;9.910;2023-01-19T09:30:30;5.80;;;3.27;;
19877;SDS011;10101;52.204;9.910;2023-01-19T09:33:00;5.43;;;3.47;;
19877;SDS011;10101;52.204;9.910;2023-01-19T09:35:28;6.13;;;3.83;;
19877;SDS011;10101;52.204;9.910;2023-01-19T09:37:55;5.77;;;3.57;;
19877;SDS011;10101;52.204;9.910;2023-01-19T09:40:22;6.23;;;3.47;;
19877;SDS011;10101;52.204;9.910;2023-01-19T09:42:50;4.83;;;3.33;;
19877;SDS011;10101;52.204;9.910;2023-01-19T09:45:25;5.20;;;3.70;;
19877;SDS011;10101;52.204;9.910;2023-01-19T09:47:56;4.50;;;3.07;;
19877;SDS011;10101;52.204;9.910;2023-01-19T09:50:25;5.60;;;3.50;;
19877;SDS011;10101;52.204;9.910;2023-01-19T09:52:57;6.60;;;3.23;;
19877;SDS011;10101;52.204;9.910;2023-01-19T09:55:29;8.03;;;3.47;;
19877;SDS011;10101;52.204;9.910;2023-01-19T09:57:56;6.23;;;3.50;;
19877;SDS011;10101;52.204;9.910;2023-01-19T10:00:24;6.73;;;3.47;;
19877;SDS011;10101;52.204;9.910;2023-01-19T10:02:54;5.40;;;3.47;;
19877;SDS011;10101;52.204;9.910;2023-01-19T10:05:26;4.73;;;3.10;;
19877;SDS011;10101;52.204;9.910;2023-01-19T10:07:59;5.53;;;3.20;;
19877;SDS011;10101;52.204;9.910;2023-01-19T10:10:35;5.37;;;3.17;;
19877;SDS011;10101;52.204;9.910;2023-01-19T10:13:13;4.07;;;3.20;;
19877;SDS011;10101;52.204;9.910;2023-01-19T10:15:53;4.93;;;3.43;;
19877;SDS011;10101;52.204;9.910;2023-01-19T10:18:29;3.67;;;2.70;;
19877;SDS011;10101;52.204;9.910;2023-01-19T10:21:10;3.87;;;2.90;;
19877;SDS011;10101;52.204;9.910;2023-01-19T10:23:42;3.80;;;2.70;;
19877;SDS011;10101;52.204;9.910;2023-01-19T10:26:12;4.93;;;3.17;;
19877;SDS011;10101;52.204;9.910;2023-01-19T10:28:42;7.37;;;3.70;;
19877;SDS011;10101;52.204;9.910;2023-01-19T10:31:11;5.87;;;2.87;;
19877;SDS011;10101;52.204;9.910;2023-01-19T10:33:38;4.83;;;2.83;;
19877;SDS011;10101;52.204;9.910;2023-01-19T10:36:14;4.53;;;3.10;;
19877;SDS011;10101;52.204;9.910;2023-01-19T10:38:42;4.90;;;2.63;;
19877;SDS011;10101;52.204;9.910;2023-01-19T10:41:11;3.57;;;2.50;;
19877;SDS011;10101;52.204;9.910;2023-01-19T10:43:41;3.13;;;2.70;;
19877;SDS011;10101;52.204;9.910;2023-01-19T10:46:21;4.33;;;2.90;;
19877;SDS011;10101;52.204;9.910;2023-01-19T10:48:51;3.90;;;2.60;;
19877;SDS011;10101;52.204;9.910;2023-01-19T10:51:19;5.00;;;2.53;;
19877;SDS011;10101;52.204;9.910;2023-01-19T10:53:53;2.50;;;2.30;;
19877;SDS011;10101;52.204;9.910;2023-01-19T10:56:22;3.00;;;2.37;;
19877;SDS011;10101;52.204;9.910;2023-01-19T10:58:50;5.20;;;2.73;;
19877;SDS011;10101;52.204;9.910;2023-01-19T11:01:20;3.63;;;2.60;;
19877;SDS011;10101;52.204;9.910;2023-01-19T11:03:49;2.80;;;2.33;;
19877;SDS011;10101;52.204;9.910;2023-01-19T11:06:18;2.93;;;2.37;;
19877;SDS011;10101;52.204;9.910;2023-01-19T11:08:47;3.70;;;2.50;;
19877;SDS011;10101;52.204;9.910;2023-01-19T11:11:16;3.50;;;2.40;;
19877;SDS011;10101;52.204;9.910;2023-01-19T11:13:46;3.17;;;2.67;;
19877;SDS011;10101;52.204;9.910;2023-01-19T11:16:30;2.93;;;2.23;;
19877;SDS011;10101;52.204;9.910;2023-01-19T11:18:59;4.13;;;2.50;;
19877;SDS011;10101;52.204;9.910;2023-01-19T11:21:27;2.13;;;1.90;;
19877;SDS011;10101;52.204;9.910;2023-01-19T11:23:56;4.60;;;2.53;;
19877;SDS011;10101;52.204;9.910;2023-01-19T11:26:26;2.80;;;2.10;;
19877;SDS011;10101;52.204;9.910;2023-01-19T11:28:55;3.20;;;2.10;;
19877;SDS011;10101;52.204;9.910;2023-01-19T11:31:34;3.10;;;2.53;;
19877;SDS011;10101;52.204;9.910;2023-01-19T11:34:02;3.87;;;2.20;;
19877;SDS011;10101;52.204;9.910;2023-01-19T11:36:30;3.20;;;2.40;;
19877;SDS011;10101;52.204;9.910;2023-01-19T11:39:00;3.40;;;2.50;;
19877;SDS011;10101;52.204;9.910;2023-01-19T11:41:48;3.20;;;2.30;;
19877;SDS011;10101;52.204;9.910;2023-01-19T11:44:17;2.83;;;2.00;;
19877;SDS011;10101;52.204;9.910;2023-01-19T11:46:48;2.80;;;2.17;;
19877;SDS011;10101;52.204;9.910;2023-01-19T11:49:20;2.83;;;2.20;;
19877;SDS011;10101;52.204;9.910;2023-01-19T11:51:55;2.67;;;2.03;;
19877;SDS011;10101;52.204;9.910;2023-01-19T11:54:28;3.23;;;2.30;;
19877;SDS011;10101;52.204;9.910;2023-01-19T11:56:57;2.70;;;2.10;;
19877;SDS011;10101;52.204;9.910;2023-01-19T11:59:32;2.03;;;1.87;;
19877;SDS011;10101;52.204;9.910;2023-01-19T12:02:00;1.87;;;1.60;;
19877;SDS011;10101;52.204;9.910;2023-01-19T12:04:36;2.00;;;1.80;;
19877;SDS011;10101;52.204;9.910;2023-01-19T12:07:06;2.03;;;1.73;;
19877;SDS011;10101;52.204;9.910;2023-01-19T12:09:38;3.20;;;2.00;;
19877;SDS011;10101;52.204;9.910;2023-01-19T12:12:09;3.07;;;2.10;;
19877;SDS011;10101;52.204;9.910;2023-01-19T12:14:40;1.93;;;1.70;;
19877;SDS011;10101;52.204;9.910;2023-01-19T12:17:15;2.40;;;1.93;;
19877;SDS011;10101;52.204;9.910;2023-01-19T12:19:50;2.77;;;2.00;;
19877;SDS011;10101;52.204;9.910;2023-01-19T12:22:21;2.23;;;1.80;;
19877;SDS011;10101;52.204;9.910;2023-01-19T12:24:53;2.73;;;1.90;;
19877;SDS011;10101;52.204;9.910;2023-01-19T12:27:32;4.27;;;2.10;;
19877;SDS011;10101;52.204;9.910;2023-01-19T12:30:05;3.27;;;2.30;;
19877;SDS011;10101;52.204;9.910;2023-01-19T12:32:42;3.17;;;2.33;;
19877;SDS011;10101;52.204;9.910;2023-01-19T12:38:21;1.93;;;1.73;;
19877;SDS011;10101;52.204;9.910;2023-01-19T12:41:14;3.67;;;2.40;;
19877;SDS011;10101;52.204;9.910;2023-01-19T12:43:42;2.20;;;1.90;;
19877;SDS011;10101;52.204;9.910;2023-01-19T12:46:19;2.93;;;2.20;;
19877;SDS011;10101;52.204;9.910;2023-01-19T12:48:53;2.87;;;2.20;;
19877;SDS011;10101;52.204;9.910;2023-01-19T12:51:28;3.40;;;2.20;;
19877;SDS011;10101;52.204;9.910;2023-01-19T12:53:55;1.97;;;1.83;;
19877;SDS011;10101;52.204;9.910;2023-01-19T12:56:26;2.70;;;1.97;;
19877;SDS011;10101;52.204;9.910;2023-01-19T12:58:54;2.13;;;1.90;;
19877;SDS011;10101;52.204;9.910;2023-01-19T13:01:22;2.37;;;2.17;;
19877;SDS011;10101;52.204;9.910;2023-01-19T13:04:00;2.47;;;1.90;;
19877;SDS011;10101;52.204;9.910;2023-01-19T13:09:35;1.93;;;1.60;;
19877;SDS011;10101;52.204;9.910;2023-01-19T13:12:21;1.80;;;1.70;;
19877;SDS011;10101;52.204;9.910;2023-01-19T13:14:50;2.43;;;1.50;;
19877;SDS011;10101;52.204;9.910;2023-01-19T13:17:37;2.90;;;1.60;;
19877;SDS011;10101;52.204;9.910;2023-01-19T13:25:50;2.00;;;1.77;;
19877;SDS011;10101;52.204;9.910;2023-01-19T13:28:37;2.37;;;1.90;;
19877;SDS011;10101;52.204;9.910;2023-01-19T13:31:06;2.10;;;1.70;;
19877;SDS011;10101;52.204;9.910;2023-01-19T13:33:36;1.70;;;1.50;;
19877;SDS011;10101;52.204;9.910;2023-01-19T13:36:15;2.57;;;1.67;;
19877;SDS011;10101;52.204;9.910;2023-01-19T13:38:46;1.87;;;1.43;;
19877;SDS011;10101;52.204;9.910;2023-01-19T13:41:13;1.93;;;1.60;;
19877;SDS011;10101;52.204;9.910;2023-01-19T13:43:43;2.63;;;2.00;;
19877;SDS011;10101;52.204;9.910;2023-01-19T13:46:11;3.27;;;1.90;;
19877;SDS011;10101;52.204;9.910;2023-01-19T13:48:42;3.30;;;1.80;;
19877;SDS011;10101;52.204;9.910;2023-01-19T13:51:20;1.90;;;1.60;;
19877;SDS011;10101;52.204;9.910;2023-01-19T13:53:53;3.47;;;1.83;;
19877;SDS011;10101;52.204;9.910;2023-01-19T13:56:21;2.93;;;1.90;;
19877;SDS011;10101;52.204;9.910;2023-01-19T13:59:06;8.17;;;2.60;;
19877;SDS011;10101;52.204;9.910;2023-01-19T14:01:36;2.70;;;1.80;;
19877;SDS011;10101;52.204;9.910;2023-01-19T14:04:05;2.70;;;2.07;;
19877;SDS011;10101;52.204;9.910;2023-01-19T14:06:34;2.87;;;2.20;;
19877;SDS011;10101;52.204;9.910;2023-01-19T14:09:04;3.33;;;2.77;;
19877;SDS011;10101;52.204;9.910;2023-01-19T14:11:40;5.27;;;2.43;;
19877;SDS011;10101;52.204;9.910;2023-01-19T14:14:20;6.00;;;2.47;;
19877;SDS011;10101;52.204;9.910;2023-01-19T14:16:48;4.73;;;2.70;;
19877;SDS011;10101;52.204;9.910;2023-01-19T14:19:14;3.03;;;2.13;;
19877;SDS011;10101;52.204;9.910;2023-01-19T14:21:42;3.03;;;2.47;;
19877;SDS011;10101;52.204;9.910;2023-01-19T14:24:14;4.93;;;2.33;;
19877;SDS011;10101;52.204;9.910;2023-01-19T14:26:44;6.57;;;2.80;;
19877;SDS011;10101;52.204;9.910;2023-01-19T14:29:16;4.20;;;3.10;;
19877;SDS011;10101;52.204;9.910;2023-01-19T14:31:48;5.50;;;3.17;;
19877;SDS011;10101;52.204;9.910;2023-01-19T14:34:28;6.20;;;3.00;;
19877;SDS011;10101;52.204;9.910;2023-01-19T14:37:01;3.50;;;2.87;;
19877;SDS011;10101;52.204;9.910;2023-01-19T14:39:31;8.27;;;3.37;;
19877;SDS011;10101;52.204;9.910;2023-01-19T14:42:00;8.07;;;3.43;;
19877;SDS011;10101;52.204;9.910;2023-01-19T14:44:31;6.37;;;3.00;;
19877;SDS011;10101;52.204;9.910;2023-01-19T14:47:00;10.13;;;3.77;;
19877;SDS011;10101;52.204;9.910;2023-01-19T14:49:32;6.67;;;3.47;;
19877;SDS011;10101;52.204;9.910;2023-01-19T14:52:02;6.37;;;3.30;;
19877;SDS011;10101;52.204;9.910;2023-01-19T14:54:33;9.30;;;3.97;;
19877;SDS011;10101;52.204;9.910;2023-01-19T14:57:03;10.40;;;3.60;;
19877;SDS011;10101;52.204;9.910;2023-01-19T14:59:30;6.37;;;3.33;;
19877;SDS011;10101;52.204;9.910;2023-01-19T15:01:57;11.73;;;4.03;;
19877;SDS011;10101;52.204;9.910;2023-01-19T15:04:24;6.00;;;3.90;;
19877;SDS011;10101;52.204;9.910;2023-01-19T15:06:51;9.07;;;3.60;;
19877;SDS011;10101;52.204;9.910;2023-01-19T15:09:21;8.27;;;3.90;;
19877;SDS011;10101;52.204;9.910;2023-01-19T15:11:48;10.93;;;4.23;;
19877;SDS011;10101;52.204;9.910;2023-01-19T15:14:16;7.13;;;3.53;;